createdAt,value
2019-03-13T00:00:44.320Z,7.57
2019-03-13T00:05:38.579Z,5.37
2019-03-13T00:10:32.812Z,6.40
2019-03-13T00:15:26.814Z,7.17
2019-03-13T00:20:20.778Z,6.57
2019-03-13T00:25:14.728Z,5.70
2019-03-13T00:30:11.404Z,5.17
2019-03-13T00:35:07.443Z,4.87
2019-03-13T00:40:01.725Z,4.40
2019-03-13T00:44:55.539Z,4.07
2019-03-13T00:49:49.417Z,2.97
2019-03-13T00:54:43.269Z,3.50
2019-03-13T00:59:37.229Z,3.50
2019-03-13T01:04:33.082Z,3.13
2019-03-13T01:09:26.936Z,3.33
2019-03-13T01:14:20.817Z,3.03
2019-03-13T01:19:14.667Z,1.93
2019-03-13T01:24:08.534Z,2.80
2019-03-13T01:29:02.487Z,2.60
2019-03-13T01:33:58.307Z,2.43
2019-03-13T01:38:52.145Z,2.80
2019-03-13T01:43:46.081Z,2.30
2019-03-13T01:48:39.926Z,2.03
2019-03-13T01:53:33.784Z,2.00
2019-03-13T01:58:27.775Z,2.13
2019-03-13T02:03:21.632Z,2.07
2019-03-13T02:08:15.492Z,2.00
2019-03-13T02:13:09.423Z,1.40
2019-03-13T02:18:03.359Z,1.77
2019-03-13T02:22:57.208Z,2.33
2019-03-13T02:27:51.177Z,1.90
2019-03-13T02:32:45.059Z,1.60
2019-03-13T02:37:38.935Z,2.10
2019-03-13T02:42:32.808Z,2.33
2019-03-13T02:47:26.633Z,1.97
2019-03-13T02:52:20.472Z,1.60
2019-03-13T02:57:14.343Z,2.00
2019-03-13T03:02:13.127Z,1.83
2019-03-13T03:07:06.983Z,1.73
2019-03-13T03:12:00.831Z,1.73
2019-03-13T03:16:54.732Z,1.87
2019-03-13T03:21:48.582Z,1.63
2019-03-13T03:26:42.443Z,1.67
2019-03-13T03:31:36.300Z,1.77
2019-03-13T03:36:30.243Z,1.97
2019-03-13T03:41:24.589Z,1.20
2019-03-13T03:46:18.457Z,1.90
2019-03-13T03:51:12.318Z,1.80
2019-03-13T03:56:06.164Z,1.67
2019-03-13T04:01:00.015Z,1.87
2019-03-13T04:05:53.995Z,1.97
2019-03-13T04:10:48.042Z,2.17
2019-03-13T04:15:41.908Z,2.53
2019-03-13T04:20:35.865Z,2.10
2019-03-13T04:25:30.620Z,1.73
2019-03-13T04:30:24.477Z,1.90
2019-03-13T04:35:18.456Z,1.43
2019-03-13T04:40:12.693Z,2.23
2019-03-13T04:45:07.859Z,1.90
2019-03-13T04:50:03.833Z,1.90
2019-03-13T04:54:57.679Z,1.77
2019-03-13T04:59:51.529Z,2.10
2019-03-13T05:04:45.386Z,2.53
2019-03-13T05:09:39.232Z,1.90
2019-03-13T05:14:33.140Z,2.20
2019-03-13T05:19:26.996Z,1.60
2019-03-13T05:24:20.872Z,1.80
2019-03-13T05:29:14.832Z,2.10
2019-03-13T05:34:08.846Z,1.90
2019-03-13T05:39:05.095Z,1.93
2019-03-13T05:43:58.940Z,1.90
2019-03-13T05:48:52.790Z,2.50
2019-03-13T05:53:46.752Z,2.00
2019-03-13T05:58:40.808Z,2.40
2019-03-13T06:03:34.765Z,2.13
2019-03-13T06:08:28.637Z,2.00
2019-03-13T06:13:22.584Z,2.47
2019-03-13T06:18:16.436Z,2.27
2019-03-13T06:23:10.310Z,2.27
2019-03-13T06:28:04.150Z,1.73
2019-03-13T06:32:58.101Z,1.87
2019-03-13T06:37:52.088Z,2.20
2019-03-13T06:42:46.144Z,2.27
2019-03-13T06:47:40.007Z,2.13
2019-03-13T06:52:33.868Z,2.30
2019-03-13T06:57:27.729Z,2.17
2019-03-13T07:02:23.506Z,2.10
2019-03-13T07:07:22.282Z,2.03
2019-03-13T07:12:21.096Z,2.20
2019-03-13T07:17:22.656Z,2.43
2019-03-13T07:22:35.302Z,2.73
2019-03-13T07:27:47.666Z,2.83
2019-03-13T07:32:46.395Z,2.07
2019-03-13T07:37:45.330Z,2.63
2019-03-13T07:42:41.073Z,2.27
2019-03-13T07:47:52.221Z,1.97
2019-03-13T07:52:53.983Z,1.87
2019-03-13T07:58:01.937Z,1.93
2019-03-13T08:03:00.771Z,2.00
2019-03-13T08:07:56.525Z,1.87
2019-03-13T08:12:55.233Z,2.10
2019-03-13T08:17:51.321Z,1.67
2019-03-13T08:22:59.470Z,1.70
2019-03-13T08:27:57.975Z,2.37
2019-03-13T08:32:53.812Z,1.50
2019-03-13T08:37:52.100Z,1.50
2019-03-13T08:42:57.194Z,1.90
2019-03-13T08:48:04.952Z,1.53
2019-03-13T08:53:09.989Z,1.60
2019-03-13T08:58:22.375Z,2.23
2019-03-13T09:03:27.113Z,1.83
2019-03-13T09:08:25.674Z,1.80
2019-03-13T09:13:24.425Z,1.97
2019-03-13T09:18:25.988Z,2.33
2019-03-13T09:23:27.636Z,1.97
2019-03-13T09:28:40.416Z,1.70
2019-03-13T09:33:36.310Z,2.17
2019-03-13T09:38:32.175Z,1.63
2019-03-13T09:43:40.301Z,2.10
2019-03-13T09:48:38.907Z,2.13
2019-03-13T09:53:43.727Z,1.90
2019-03-13T09:58:42.544Z,1.80
2019-03-13T10:03:38.326Z,2.07
2019-03-13T10:08:40.180Z,2.07
2019-03-13T10:13:38.757Z,2.03
2019-03-13T10:18:51.391Z,2.00
2019-03-13T10:23:47.162Z,2.00
2019-03-13T10:28:55.247Z,2.80
2019-03-13T10:33:51.030Z,2.37
2019-03-13T10:38:55.613Z,2.33
2019-03-13T10:43:51.608Z,2.63
2019-03-13T10:48:53.198Z,1.63
2019-03-13T10:53:48.097Z,1.87
2019-03-13T10:59:00.733Z,1.63
2019-03-13T11:03:56.495Z,1.60
2019-03-13T11:08:55.269Z,1.60
2019-03-13T11:13:51.093Z,1.67
2019-03-13T11:19:02.199Z,1.47
2019-03-13T11:24:13.397Z,2.30
2019-03-13T11:29:09.159Z,1.80
2019-03-13T11:34:10.958Z,2.00
2019-03-13T11:39:22.871Z,2.03
2019-03-13T11:44:21.809Z,1.63
2019-03-13T11:49:23.506Z,1.97
2019-03-13T11:54:28.142Z,1.63
2019-03-13T11:59:40.476Z,1.70
2019-03-13T12:04:38.950Z,1.93
2019-03-13T12:09:43.683Z,2.20
2019-03-13T12:14:45.221Z,1.87
2019-03-13T12:19:41.013Z,1.97
2019-03-13T12:24:36.784Z,2.23
2019-03-13T12:29:32.539Z,2.07
2019-03-13T12:34:45.186Z,1.57
2019-03-13T12:39:40.959Z,2.50
2019-03-13T12:44:52.148Z,2.50
2019-03-13T12:49:56.778Z,1.93
2019-03-13T12:54:52.530Z,1.23
2019-03-13T13:00:06.211Z,1.97
2019-03-13T13:05:02.006Z,2.53
2019-03-13T13:10:10.063Z,2.17
2019-03-13T13:15:09.025Z,2.60
2019-03-13T13:20:06.705Z,1.50
2019-03-13T13:25:00.699Z,1.77
2019-03-13T13:29:54.726Z,2.27
2019-03-13T13:34:48.768Z,1.50
2019-03-13T13:39:42.634Z,2.30
2019-03-13T13:44:36.485Z,1.57
2019-03-13T13:49:30.448Z,2.03
2019-03-13T13:54:24.328Z,1.50
2019-03-13T13:59:18.182Z,2.47
2019-03-13T14:04:12.098Z,2.60
2019-03-13T14:09:06.072Z,2.87
2019-03-13T14:14:00.057Z,2.20
2019-03-13T14:18:54.167Z,2.23
2019-03-13T14:23:48.266Z,2.70
2019-03-13T14:28:42.095Z,2.27
2019-03-13T14:33:36.075Z,3.17
2019-03-13T14:38:30.068Z,2.63
2019-03-13T14:43:23.930Z,2.50
2019-03-13T14:48:17.824Z,2.53
2019-03-13T14:53:11.695Z,3.37
2019-03-13T14:58:05.673Z,3.83
2019-03-13T15:02:59.572Z,3.40
2019-03-13T15:07:53.582Z,3.90
2019-03-13T15:12:47.444Z,3.00
2019-03-13T15:17:41.435Z,2.40
2019-03-13T15:22:35.425Z,3.07
2019-03-13T15:27:29.389Z,2.83
2019-03-13T15:32:23.278Z,2.90
2019-03-13T15:37:17.254Z,2.67
2019-03-13T15:42:11.214Z,2.60
2019-03-13T15:47:05.337Z,3.50
2019-03-13T15:51:59.266Z,3.00
2019-03-13T15:56:53.225Z,3.00
2019-03-13T16:01:47.109Z,3.47
2019-03-13T16:06:41.098Z,3.40
2019-03-13T16:11:34.989Z,2.80
2019-03-13T16:16:29.069Z,3.20
2019-03-13T16:21:23.005Z,4.30
2019-03-13T16:26:16.846Z,1.80
2019-03-13T16:31:11.010Z,1.23
2019-03-13T16:36:04.905Z,0.80
2019-03-13T16:40:58.786Z,0.80
2019-03-13T16:45:52.731Z,0.90
2019-03-13T16:50:46.723Z,1.50
2019-03-13T16:55:40.698Z,1.17
2019-03-13T17:00:34.601Z,1.80
2019-03-13T17:05:28.560Z,1.70
2019-03-13T17:10:23.630Z,2.30
2019-03-13T17:15:19.728Z,2.20
2019-03-13T17:20:26.017Z,1.83
2019-03-13T17:25:20.117Z,3.30
2019-03-13T17:30:17.513Z,3.10
2019-03-13T17:35:11.833Z,3.07
2019-03-13T17:40:12.445Z,2.93
2019-03-13T17:45:09.925Z,3.23
2019-03-13T17:50:07.112Z,3.23
2019-03-13T17:55:01.125Z,3.10
2019-03-13T17:59:55.131Z,2.97
2019-03-13T18:04:49.139Z,3.27
2019-03-13T18:09:43.196Z,2.87
2019-03-13T18:14:37.085Z,2.60
2019-03-13T18:19:31.105Z,3.20
2019-03-13T18:24:25.082Z,3.30
2019-03-13T18:29:19.057Z,2.33
2019-03-13T18:34:13.142Z,3.50
2019-03-13T18:39:07.246Z,3.43
2019-03-13T18:44:01.386Z,4.07
2019-03-13T18:48:55.258Z,4.80
2019-03-13T18:53:49.181Z,5.17
2019-03-13T18:58:43.191Z,5.87
2019-03-13T19:03:37.181Z,4.93
2019-03-13T19:08:31.095Z,3.40
2019-03-13T19:13:24.991Z,3.53
2019-03-13T19:18:18.977Z,3.27
2019-03-13T19:23:16.690Z,2.33
2019-03-13T19:28:10.697Z,3.23
2019-03-13T19:33:04.873Z,3.20
2019-03-13T19:38:14.009Z,3.63
2019-03-13T19:43:07.951Z,3.73
2019-03-13T19:48:02.076Z,4.20
2019-03-13T19:52:56.110Z,3.10
2019-03-13T19:57:49.990Z,2.90
2019-03-13T20:02:44.099Z,2.40
2019-03-13T20:07:38.014Z,2.40
2019-03-13T20:12:32.290Z,2.13
2019-03-13T20:17:26.561Z,2.40
2019-03-13T20:22:22.791Z,2.70
2019-03-13T20:27:16.344Z,2.30
2019-03-13T20:32:10.254Z,3.10
2019-03-13T20:37:04.347Z,2.87
2019-03-13T20:41:58.344Z,3.00
2019-03-13T20:46:52.306Z,3.10
2019-03-13T20:51:46.395Z,3.40
2019-03-13T20:56:40.312Z,3.07
2019-03-13T21:01:34.304Z,3.20
2019-03-13T21:06:28.319Z,3.87
2019-03-13T21:11:22.237Z,4.20
2019-03-13T21:16:16.212Z,3.60
2019-03-13T21:21:10.210Z,3.57
2019-03-13T21:26:04.110Z,3.47
2019-03-13T21:30:58.223Z,3.40
2019-03-13T21:35:52.111Z,3.67
2019-03-13T21:40:46.073Z,3.00
2019-03-13T21:45:41.667Z,2.90
2019-03-13T21:50:35.847Z,2.93
2019-03-13T21:55:29.864Z,4.00
2019-03-13T22:00:26.102Z,2.87
2019-03-13T22:05:25.500Z,3.90
2019-03-13T22:10:17.254Z,2.97
2019-03-13T22:15:16.113Z,3.13
2019-03-13T22:20:11.805Z,3.40
2019-03-13T22:25:08.765Z,3.17
2019-03-13T22:30:05.934Z,2.60
2019-03-13T22:34:59.922Z,3.00
2019-03-13T22:39:53.781Z,2.43
2019-03-13T22:44:47.641Z,2.57
2019-03-13T22:49:41.505Z,1.90
2019-03-13T22:54:35.577Z,2.10
2019-03-13T22:59:29.545Z,1.67
2019-03-13T23:04:23.537Z,1.60
2019-03-13T23:09:17.392Z,2.00
2019-03-13T23:14:11.224Z,2.00
2019-03-13T23:19:05.233Z,1.70
2019-03-13T23:23:59.040Z,2.03
2019-03-13T23:28:52.928Z,1.90
2019-03-13T23:33:46.981Z,2.07
2019-03-13T23:38:40.990Z,2.07
2019-03-13T23:43:34.873Z,2.63
2019-03-13T23:48:28.954Z,2.43
2019-03-13T23:53:22.818Z,2.17
2019-03-13T23:58:18.633Z,2.83
